sensor_id;sensor_type;location;lat;lon;timestamp;P1;durP1;ratioP1;P2;durP2;ratioP2
62994;SDS011;49086;52.300;4.850;2022-08-07T00:01:15;5.32;;;2.85;;
62994;SDS011;49086;52.300;4.850;2022-08-07T00:03:43;4.95;;;2.63;;
62994;SDS011;49086;52.300;4.850;2022-08-07T00:06:10;9.68;;;2.97;;
62994;SDS011;49086;52.300;4.850;2022-08-07T00:08:36;6.40;;;2.50;;
62994;SDS011;49086;52.300;4.850;2022-08-07T00:11:03;5.93;;;2.70;;
62994;SDS011;49086;52.300;4.850;2022-08-07T00:13:29;5.32;;;2.80;;
62994;SDS011;49086;52.300;4.850;2022-08-07T00:15:55;7.32;;;3.00;;
62994;SDS011;49086;52.300;4.850;2022-08-07T00:18:23;5.07;;;2.63;;
62994;SDS011;49086;52.300;4.850;2022-08-07T00:21:01;5.20;;;2.95;;
62994;SDS011;49086;52.300;4.850;2022-08-07T00:23:30;5.38;;;2.63;;
62994;SDS011;49086;52.300;4.850;2022-08-07T00:25:59;5.38;;;2.65;;
62994;SDS011;49086;52.300;4.850;2022-08-07T00:28:28;4.20;;;2.35;;
62994;SDS011;49086;52.300;4.850;2022-08-07T00:30:55;5.00;;;2.20;;
62994;SDS011;49086;52.300;4.850;2022-08-07T00:33:21;4.85;;;2.53;;
62994;SDS011;49086;52.300;4.850;2022-08-07T00:35:52;5.22;;;2.33;;
62994;SDS011;49086;52.300;4.850;2022-08-07T00:38:26;4.25;;;2.45;;
62994;SDS011;49086;52.300;4.850;2022-08-07T00:40:52;4.80;;;2.80;;
62994;SDS011;49086;52.300;4.850;2022-08-07T00:43:17;4.22;;;2.50;;
62994;SDS011;49086;52.300;4.850;2022-08-07T00:45:44;4.55;;;2.50;;
62994;SDS011;49086;52.300;4.850;2022-08-07T00:48:09;4.82;;;2.55;;
62994;SDS011;49086;52.300;4.850;2022-08-07T00:50:45;4.88;;;2.50;;
62994;SDS011;49086;52.300;4.850;2022-08-07T00:53:10;3.97;;;2.30;;
62994;SDS011;49086;52.300;4.850;2022-08-07T00:55:36;5.68;;;2.38;;
62994;SDS011;49086;52.300;4.850;2022-08-07T00:58:10;5.22;;;2.75;;
62994;SDS011;49086;52.300;4.850;2022-08-07T01:00:40;6.75;;;2.80;;
62994;SDS011;49086;52.300;4.850;2022-08-07T01:03:09;5.00;;;2.30;;
62994;SDS011;49086;52.300;4.850;2022-08-07T01:05:36;5.78;;;2.50;;
62994;SDS011;49086;52.300;4.850;2022-08-07T01:08:03;5.90;;;2.65;;
62994;SDS011;49086;52.300;4.850;2022-08-07T01:10:29;7.55;;;2.88;;
62994;SDS011;49086;52.300;4.850;2022-08-07T01:12:56;5.25;;;2.65;;
62994;SDS011;49086;52.300;4.850;2022-08-07T01:15:23;4.35;;;2.50;;
62994;SDS011;49086;52.300;4.850;2022-08-07T01:17:50;4.20;;;2.63;;
62994;SDS011;49086;52.300;4.850;2022-08-07T01:20:17;4.18;;;2.40;;
62994;SDS011;49086;52.300;4.850;2022-08-07T01:22:50;6.32;;;2.95;;
62994;SDS011;49086;52.300;4.850;2022-08-07T01:25:19;5.40;;;2.38;;
62994;SDS011;49086;52.300;4.850;2022-08-07T01:27:45;7.35;;;2.92;;
62994;SDS011;49086;52.300;4.850;2022-08-07T01:30:15;4.45;;;2.47;;
62994;SDS011;49086;52.300;4.850;2022-08-07T01:32:42;4.07;;;2.47;;
62994;SDS011;49086;52.300;4.850;2022-08-07T01:35:10;4.55;;;2.67;;
62994;SDS011;49086;52.300;4.850;2022-08-07T01:37:37;6.72;;;2.97;;
62994;SDS011;49086;52.300;4.850;2022-08-07T01:40:04;4.40;;;2.58;;
62994;SDS011;49086;52.300;4.850;2022-08-07T01:42:31;5.13;;;2.45;;
62994;SDS011;49086;52.300;4.850;2022-08-07T01:44:59;5.45;;;2.55;;
62994;SDS011;49086;52.300;4.850;2022-08-07T01:47:30;6.75;;;2.85;;
62994;SDS011;49086;52.300;4.850;2022-08-07T01:49:56;7.90;;;3.15;;
62994;SDS011;49086;52.300;4.850;2022-08-07T01:52:27;4.20;;;2.75;;
62994;SDS011;49086;52.300;4.850;2022-08-07T01:54:56;6.07;;;2.60;;
62994;SDS011;49086;52.300;4.850;2022-08-07T01:57:29;4.32;;;2.63;;
62994;SDS011;49086;52.300;4.850;2022-08-07T02:00:06;7.47;;;2.88;;
62994;SDS011;49086;52.300;4.850;2022-08-07T02:02:44;8.70;;;2.83;;
62994;SDS011;49086;52.300;4.850;2022-08-07T02:05:17;7.05;;;2.85;;
62994;SDS011;49086;52.300;4.850;2022-08-07T02:07:49;4.70;;;2.80;;
62994;SDS011;49086;52.300;4.850;2022-08-07T02:10:18;5.28;;;2.80;;
62994;SDS011;49086;52.300;4.850;2022-08-07T02:12:48;4.00;;;2.53;;
62994;SDS011;49086;52.300;4.850;2022-08-07T02:15:19;5.22;;;2.70;;
62994;SDS011;49086;52.300;4.850;2022-08-07T02:17:50;3.67;;;2.53;;
62994;SDS011;49086;52.300;4.850;2022-08-07T02:20:17;6.70;;;2.80;;
62994;SDS011;49086;52.300;4.850;2022-08-07T02:22:48;4.18;;;2.70;;
62994;SDS011;49086;52.300;4.850;2022-08-07T02:25:17;5.60;;;2.55;;
62994;SDS011;49086;52.300;4.850;2022-08-07T02:27:47;5.25;;;2.80;;
62994;SDS011;49086;52.300;4.850;2022-08-07T02:30:13;7.43;;;2.78;;
62994;SDS011;49086;52.300;4.850;2022-08-07T02:32:39;4.22;;;2.45;;
62994;SDS011;49086;52.300;4.850;2022-08-07T02:35:09;5.05;;;2.53;;
62994;SDS011;49086;52.300;4.850;2022-08-07T02:37:36;6.75;;;2.50;;
62994;SDS011;49086;52.300;4.850;2022-08-07T02:40:06;4.45;;;2.70;;
62994;SDS011;49086;52.300;4.850;2022-08-07T02:42:35;5.05;;;2.90;;
62994;SDS011;49086;52.300;4.850;2022-08-07T02:45:02;4.18;;;2.80;;
62994;SDS011;49086;52.300;4.850;2022-08-07T02:47:29;4.18;;;2.58;;
62994;SDS011;49086;52.300;4.850;2022-08-07T02:49:55;4.47;;;2.60;;
62994;SDS011;49086;52.300;4.850;2022-08-07T02:52:22;4.70;;;2.88;;
62994;SDS011;49086;52.300;4.850;2022-08-07T02:54:58;5.75;;;2.85;;
62994;SDS011;49086;52.300;4.850;2022-08-07T02:57:28;4.03;;;2.95;;
62994;SDS011;49086;52.300;4.850;2022-08-07T02:59:55;4.88;;;2.88;;
62994;SDS011;49086;52.300;4.850;2022-08-07T03:02:23;4.72;;;2.95;;
62994;SDS011;49086;52.300;4.850;2022-08-07T03:04:52;4.50;;;2.60;;
62994;SDS011;49086;52.300;4.850;2022-08-07T03:07:32;6.03;;;2.75;;
62994;SDS011;49086;52.300;4.850;2022-08-07T03:10:07;5.50;;;3.10;;
62994;SDS011;49086;52.300;4.850;2022-08-07T03:12:43;4.75;;;3.03;;
62994;SDS011;49086;52.300;4.850;2022-08-07T03:15:13;6.38;;;3.13;;
62994;SDS011;49086;52.300;4.850;2022-08-07T03:17:40;4.32;;;2.90;;
62994;SDS011;49086;52.300;4.850;2022-08-07T03:20:06;8.55;;;3.13;;
62994;SDS011;49086;52.300;4.850;2022-08-07T03:22:34;7.10;;;3.10;;
62994;SDS011;49086;52.300;4.850;2022-08-07T03:25:01;4.82;;;3.13;;
62994;SDS011;49086;52.300;4.850;2022-08-07T03:27:30;5.93;;;3.25;;
62994;SDS011;49086;52.300;4.850;2022-08-07T03:29:56;5.07;;;2.95;;
62994;SDS011;49086;52.300;4.850;2022-08-07T03:32:25;5.28;;;3.22;;
62994;SDS011;49086;52.300;4.850;2022-08-07T03:34:56;6.40;;;2.88;;
62994;SDS011;49086;52.300;4.850;2022-08-07T03:37:26;5.35;;;2.92;;
62994;SDS011;49086;52.300;4.850;2022-08-07T03:39:55;5.60;;;3.00;;
62994;SDS011;49086;52.300;4.850;2022-08-07T03:42:21;6.57;;;2.97;;
62994;SDS011;49086;52.300;4.850;2022-08-07T03:44:50;4.18;;;2.95;;
62994;SDS011;49086;52.300;4.850;2022-08-07T03:47:19;5.22;;;3.25;;
62994;SDS011;49086;52.300;4.850;2022-08-07T03:49:48;4.70;;;3.03;;
62994;SDS011;49086;52.300;4.850;2022-08-07T03:52:15;6.05;;;3.28;;
62994;SDS011;49086;52.300;4.850;2022-08-07T03:54:44;5.22;;;3.17;;
62994;SDS011;49086;52.300;4.850;2022-08-07T03:57:09;7.20;;;3.28;;
62994;SDS011;49086;52.300;4.850;2022-08-07T03:59:37;4.88;;;2.88;;
62994;SDS011;49086;52.300;4.850;2022-08-07T04:02:04;4.72;;;2.92;;
62994;SDS011;49086;52.300;4.850;2022-08-07T04:04:33;5.50;;;3.53;;
62994;SDS011;49086;52.300;4.850;2022-08-07T04:06:59;7.47;;;3.25;;
62994;SDS011;49086;52.300;4.850;2022-08-07T04:09:26;4.90;;;2.90;;
62994;SDS011;49086;52.300;4.850;2022-08-07T04:11:53;5.47;;;3.22;;
62994;SDS011;49086;52.300;4.850;2022-08-07T04:14:21;5.75;;;3.28;;
62994;SDS011;49086;52.300;4.850;2022-08-07T04:16:49;6.50;;;3.20;;
62994;SDS011;49086;52.300;4.850;2022-08-07T04:19:16;5.53;;;3.40;;
62994;SDS011;49086;52.300;4.850;2022-08-07T04:21:44;5.18;;;3.00;;
62994;SDS011;49086;52.300;4.850;2022-08-07T04:24:12;5.38;;;3.28;;
62994;SDS011;49086;52.300;4.850;2022-08-07T04:26:41;5.07;;;2.95;;
62994;SDS011;49086;52.300;4.850;2022-08-07T04:29:06;6.82;;;3.42;;
62994;SDS011;49086;52.300;4.850;2022-08-07T04:31:38;4.60;;;2.85;;
62994;SDS011;49086;52.300;4.850;2022-08-07T04:34:07;6.65;;;3.13;;
62994;SDS011;49086;52.300;4.850;2022-08-07T04:36:35;6.25;;;3.40;;
62994;SDS011;49086;52.300;4.850;2022-08-07T04:39:04;5.03;;;3.17;;
62994;SDS011;49086;52.300;4.850;2022-08-07T04:41:29;9.20;;;3.42;;
62994;SDS011;49086;52.300;4.850;2022-08-07T04:43:55;5.97;;;3.45;;
62994;SDS011;49086;52.300;4.850;2022-08-07T04:52:27;5.97;;;3.80;;
62994;SDS011;49086;52.300;4.850;2022-08-07T04:55:23;5.70;;;3.20;;
62994;SDS011;49086;52.300;4.850;2022-08-07T05:06:11;6.70;;;3.30;;
62994;SDS011;49086;52.300;4.850;2022-08-07T05:11:31;5.70;;;3.60;;
62994;SDS011;49086;52.300;4.850;2022-08-07T05:14:08;7.07;;;4.28;;
62994;SDS011;49086;52.300;4.850;2022-08-07T05:16:38;4.72;;;3.35;;
62994;SDS011;49086;52.300;4.850;2022-08-07T05:19:12;6.07;;;3.78;;
62994;SDS011;49086;52.300;4.850;2022-08-07T05:21:59;6.82;;;3.90;;
62994;SDS011;49086;52.300;4.850;2022-08-07T05:24:28;6.45;;;3.67;;
62994;SDS011;49086;52.300;4.850;2022-08-07T05:26:56;8.02;;;3.63;;
62994;SDS011;49086;52.300;4.850;2022-08-07T05:29:24;8.07;;;4.10;;
62994;SDS011;49086;52.300;4.850;2022-08-07T05:31:52;7.72;;;4.40;;
62994;SDS011;49086;52.300;4.850;2022-08-07T05:34:20;6.32;;;3.92;;
62994;SDS011;49086;52.300;4.850;2022-08-07T05:36:49;5.90;;;4.03;;
62994;SDS011;49086;52.300;4.850;2022-08-07T05:39:16;5.43;;;3.75;;
62994;SDS011;49086;52.300;4.850;2022-08-07T05:41:44;5.28;;;3.75;;
62994;SDS011;49086;52.300;4.850;2022-08-07T05:44:12;7.78;;;4.32;;
62994;SDS011;49086;52.300;4.850;2022-08-07T05:46:40;7.88;;;4.07;;
62994;SDS011;49086;52.300;4.850;2022-08-07T05:49:08;6.55;;;4.05;;
62994;SDS011;49086;52.300;4.850;2022-08-07T05:51:36;6.43;;;4.15;;
62994;SDS011;49086;52.300;4.850;2022-08-07T05:54:02;6.45;;;4.13;;
62994;SDS011;49086;52.300;4.850;2022-08-07T05:56:33;6.63;;;3.85;;
62994;SDS011;49086;52.300;4.850;2022-08-07T05:59:00;10.77;;;5.22;;
62994;SDS011;49086;52.300;4.850;2022-08-07T06:01:38;11.45;;;5.53;;
62994;SDS011;49086;52.300;4.850;2022-08-07T06:04:13;6.63;;;4.28;;
62994;SDS011;49086;52.300;4.850;2022-08-07T06:06:45;6.82;;;4.35;;
62994;SDS011;49086;52.300;4.850;2022-08-07T06:09:10;9.40;;;5.15;;
62994;SDS011;49086;52.300;4.850;2022-08-07T06:11:39;10.43;;;5.03;;
62994;SDS011;49086;52.300;4.850;2022-08-07T06:14:20;8.35;;;4.88;;
62994;SDS011;49086;52.300;4.850;2022-08-07T06:16:47;8.23;;;4.50;;
62994;SDS011;49086;52.300;4.850;2022-08-07T06:19:13;7.20;;;4.60;;
62994;SDS011;49086;52.300;4.850;2022-08-07T06:21:39;10.25;;;4.65;;
62994;SDS011;49086;52.300;4.850;2022-08-07T06:24:08;8.20;;;4.45;;
62994;SDS011;49086;52.300;4.850;2022-08-07T06:26:43;8.40;;;4.72;;
62994;SDS011;49086;52.300;4.850;2022-08-07T06:29:11;7.60;;;4.82;;
62994;SDS011;49086;52.300;4.850;2022-08-07T06:31:38;9.60;;;5.47;;
62994;SDS011;49086;52.300;4.850;2022-08-07T06:34:13;12.55;;;5.10;;
62994;SDS011;49086;52.300;4.850;2022-08-07T06:36:38;7.97;;;5.75;;
62994;SDS011;49086;52.300;4.850;2022-08-07T06:39:05;8.20;;;4.80;;
62994;SDS011;49086;52.300;4.850;2022-08-07T06:44:33;9.90;;;5.15;;
62994;SDS011;49086;52.300;4.850;2022-08-07T06:47:02;6.40;;;4.85;;
62994;SDS011;49086;52.300;4.850;2022-08-07T06:49:29;8.82;;;5.00;;
62994;SDS011;49086;52.300;4.850;2022-08-07T06:51:55;7.22;;;4.85;;
62994;SDS011;49086;52.300;4.850;2022-08-07T06:54:25;8.35;;;5.05;;
62994;SDS011;49086;52.300;4.850;2022-08-07T06:56:54;6.95;;;4.93;;
62994;SDS011;49086;52.300;4.850;2022-08-07T06:59:41;6.72;;;4.78;;
62994;SDS011;49086;52.300;4.850;2022-08-07T07:02:22;9.13;;;5.22;;
62994;SDS011;49086;52.300;4.850;2022-08-07T07:04:52;9.57;;;5.03;;
62994;SDS011;49086;52.300;4.850;2022-08-07T07:07:45;9.07;;;5.05;;
62994;SDS011;49086;52.300;4.850;2022-08-07T07:10:12;8.88;;;5.45;;
62994;SDS011;49086;52.300;4.850;2022-08-07T07:12:42;8.95;;;4.72;;
62994;SDS011;49086;52.300;4.850;2022-08-07T07:15:33;7.25;;;5.22;;
62994;SDS011;49086;52.300;4.850;2022-08-07T07:20:41;8.45;;;4.90;;
62994;SDS011;49086;52.300;4.850;2022-08-07T07:23:15;6.72;;;4.80;;
62994;SDS011;49086;52.300;4.850;2022-08-07T07:26:04;8.13;;;5.32;;
62994;SDS011;49086;52.300;4.850;2022-08-07T07:28:35;8.68;;;4.85;;
62994;SDS011;49086;52.300;4.850;2022-08-07T07:34:14;6.57;;;4.55;;
62994;SDS011;49086;52.300;4.850;2022-08-07T07:36:45;9.05;;;4.85;;
62994;SDS011;49086;52.300;4.850;2022-08-07T07:39:13;6.80;;;4.20;;
62994;SDS011;49086;52.300;4.850;2022-08-07T07:41:43;7.18;;;4.65;;
62994;SDS011;49086;52.300;4.850;2022-08-07T07:44:15;6.90;;;4.22;;
62994;SDS011;49086;52.300;4.850;2022-08-07T07:46:43;5.32;;;3.97;;
62994;SDS011;49086;52.300;4.850;2022-08-07T07:49:17;7.93;;;4.63;;
62994;SDS011;49086;52.300;4.850;2022-08-07T07:51:47;8.52;;;4.10;;
62994;SDS011;49086;52.300;4.850;2022-08-07T07:54:18;8.20;;;4.20;;
62994;SDS011;49086;52.300;4.850;2022-08-07T07:56:50;6.88;;;3.60;;
62994;SDS011;49086;52.300;4.850;2022-08-07T07:59:23;7.03;;;3.53;;
62994;SDS011;49086;52.300;4.850;2022-08-07T08:01:52;6.78;;;3.83;;
62994;SDS011;49086;52.300;4.850;2022-08-07T08:04:23;7.78;;;4.28;;
62994;SDS011;49086;52.300;4.850;2022-08-07T08:06:51;6.43;;;4.28;;
62994;SDS011;49086;52.300;4.850;2022-08-07T08:09:19;7.90;;;4.55;;
62994;SDS011;49086;52.300;4.850;2022-08-07T08:11:47;7.50;;;3.85;;
62994;SDS011;49086;52.300;4.850;2022-08-07T08:14:21;7.47;;;3.97;;
62994;SDS011;49086;52.300;4.850;2022-08-07T08:16:54;6.50;;;4.00;;
62994;SDS011;49086;52.300;4.850;2022-08-07T08:19:24;6.97;;;3.97;;
62994;SDS011;49086;52.300;4.850;2022-08-07T08:21:52;5.88;;;3.47;;
62994;SDS011;49086;52.300;4.850;2022-08-07T08:24:41;5.63;;;3.33;;
62994;SDS011;49086;52.300;4.850;2022-08-07T08:27:33;6.43;;;3.70;;
62994;SDS011;49086;52.300;4.850;2022-08-07T08:30:05;6.38;;;3.70;;
62994;SDS011;49086;52.300;4.850;2022-08-07T08:35:01;8.07;;;4.13;;
62994;SDS011;49086;52.300;4.850;2022-08-07T08:37:33;7.28;;;3.72;;
62994;SDS011;49086;52.300;4.850;2022-08-07T08:40:00;6.78;;;3.85;;
62994;SDS011;49086;52.300;4.850;2022-08-07T08:45:40;8.70;;;3.85;;
62994;SDS011;49086;52.300;4.850;2022-08-07T08:48:22;8.82;;;4.28;;
62994;SDS011;49086;52.300;4.850;2022-08-07T08:50:57;7.32;;;3.75;;
62994;SDS011;49086;52.300;4.850;2022-08-07T08:56:32;7.22;;;3.90;;
62994;SDS011;49086;52.300;4.850;2022-08-07T09:05:13;6.38;;;3.47;;
62994;SDS011;49086;52.300;4.850;2022-08-07T09:10:47;6.97;;;3.60;;
62994;SDS011;49086;52.300;4.850;2022-08-07T09:15:50;7.07;;;3.70;;
62994;SDS011;49086;52.300;4.850;2022-08-07T09:22:26;6.35;;;3.70;;
62994;SDS011;49086;52.300;4.850;2022-08-07T09:27:45;5.90;;;3.63;;
62994;SDS011;49086;52.300;4.850;2022-08-07T09:32:56;5.97;;;3.63;;
62994;SDS011;49086;52.300;4.850;2022-08-07T09:35:48;6.72;;;3.58;;
62994;SDS011;49086;52.300;4.850;2022-08-07T09:38:24;7.80;;;3.90;;
62994;SDS011;49086;52.300;4.850;2022-08-07T09:41:01;9.48;;;4.15;;
62994;SDS011;49086;52.300;4.850;2022-08-07T10:01:48;7.05;;;3.97;;
62994;SDS011;49086;52.300;4.850;2022-08-07T10:25:29;5.93;;;2.90;;
62994;SDS011;49086;52.300;4.850;2022-08-07T10:28:34;5.13;;;2.70;;
62994;SDS011;49086;52.300;4.850;2022-08-07T10:34:29;6.68;;;2.92;;
62994;SDS011;49086;52.300;4.850;2022-08-07T10:40:11;4.65;;;2.60;;
62994;SDS011;49086;52.300;4.850;2022-08-07T10:42:41;6.10;;;2.83;;
62994;SDS011;49086;52.300;4.850;2022-08-07T10:45:45;5.63;;;2.78;;
62994;SDS011;49086;52.300;4.850;2022-08-07T10:51:21;6.40;;;2.83;;
62994;SDS011;49086;52.300;4.850;2022-08-07T10:57:07;3.78;;;2.70;;
62994;SDS011;49086;52.300;4.850;2022-08-07T11:06:05;4.88;;;3.05;;
62994;SDS011;49086;52.300;4.850;2022-08-07T11:08:55;5.90;;;3.33;;
62994;SDS011;49086;52.300;4.850;2022-08-07T11:11:37;6.40;;;3.38;;
62994;SDS011;49086;52.300;4.850;2022-08-07T11:14:14;6.53;;;2.92;;
62994;SDS011;49086;52.300;4.850;2022-08-07T11:16:49;8.30;;;3.50;;
62994;SDS011;49086;52.300;4.850;2022-08-07T11:19:35;6.53;;;3.22;;
62994;SDS011;49086;52.300;4.850;2022-08-07T11:22:11;4.95;;;2.50;;
62994;SDS011;49086;52.300;4.850;2022-08-07T11:27:49;5.40;;;3.17;;
62994;SDS011;49086;52.300;4.850;2022-08-07T11:30:23;8.07;;;2.92;;
62994;SDS011;49086;52.300;4.850;2022-08-07T11:35:33;6.35;;;3.30;;
62994;SDS011;49086;52.300;4.850;2022-08-07T11:38:14;7.07;;;2.92;;
62994;SDS011;49086;52.300;4.850;2022-08-07T11:40:56;4.57;;;2.60;;
62994;SDS011;49086;52.300;4.850;2022-08-07T11:58:12;3.95;;;2.20;;
62994;SDS011;49086;52.300;4.850;2022-08-07T12:06:33;4.32;;;1.92;;
62994;SDS011;49086;52.300;4.850;2022-08-07T12:09:35;4.25;;;2.15;;
62994;SDS011;49086;52.300;4.850;2022-08-07T12:12:27;3.40;;;2.25;;
62994;SDS011;49086;52.300;4.850;2022-08-07T12:15:38;5.30;;;2.28;;
62994;SDS011;49086;52.300;4.850;2022-08-07T12:18:56;7.65;;;1.85;;
62994;SDS011;49086;52.300;4.850;2022-08-07T12:24:19;5.57;;;2.25;;
62994;SDS011;49086;52.300;4.850;2022-08-07T12:27:08;5.70;;;1.92;;
62994;SDS011;49086;52.300;4.850;2022-08-07T12:29:53;3.85;;;1.83;;
62994;SDS011;49086;52.300;4.850;2022-08-07T12:32:29;5.85;;;2.22;;
62994;SDS011;49086;52.300;4.850;2022-08-07T12:35:15;6.22;;;2.15;;
62994;SDS011;49086;52.300;4.850;2022-08-07T12:37:45;3.75;;;2.05;;
62994;SDS011;49086;52.300;4.850;2022-08-07T12:40:21;6.72;;;2.60;;
62994;SDS011;49086;52.300;4.850;2022-08-07T12:42:50;4.97;;;2.20;;
62994;SDS011;49086;52.300;4.850;2022-08-07T12:45:22;3.50;;;1.90;;
62994;SDS011;49086;52.300;4.850;2022-08-07T12:58:52;4.30;;;2.25;;
62994;SDS011;49086;52.300;4.850;2022-08-07T13:07:16;5.28;;;2.22;;
62994;SDS011;49086;52.300;4.850;2022-08-07T13:10:16;3.80;;;2.10;;
62994;SDS011;49086;52.300;4.850;2022-08-07T13:15:55;6.35;;;2.20;;
62994;SDS011;49086;52.300;4.850;2022-08-07T13:19:05;5.93;;;2.10;;
62994;SDS011;49086;52.300;4.850;2022-08-07T13:25:05;4.53;;;2.20;;
62994;SDS011;49086;52.300;4.850;2022-08-07T13:28:14;4.47;;;2.25;;
62994;SDS011;49086;52.300;4.850;2022-08-07T13:30:58;4.72;;;2.17;;
62994;SDS011;49086;52.300;4.850;2022-08-07T13:33:35;6.35;;;1.90;;
62994;SDS011;49086;52.300;4.850;2022-08-07T13:36:33;7.78;;;2.00;;
62994;SDS011;49086;52.300;4.850;2022-08-07T13:40:19;4.28;;;1.88;;
62994;SDS011;49086;52.300;4.850;2022-08-07T13:42:28;4.07;;;2.00;;
62994;SDS011;49086;52.300;4.850;2022-08-07T13:45:19;5.50;;;1.85;;
62994;SDS011;49086;52.300;4.850;2022-08-07T13:47:46;3.63;;;2.00;;
62994;SDS011;49086;52.300;4.850;2022-08-07T13:50:16;4.60;;;1.90;;
62994;SDS011;49086;52.300;4.850;2022-08-07T13:52:51;3.45;;;1.70;;
62994;SDS011;49086;52.300;4.850;2022-08-07T13:55:20;4.75;;;1.80;;
62994;SDS011;49086;52.300;4.850;2022-08-07T13:58:09;4.75;;;2.00;;
62994;SDS011;49086;52.300;4.850;2022-08-07T14:00:57;5.00;;;1.70;;
62994;SDS011;49086;52.300;4.850;2022-08-07T14:03:26;3.35;;;1.92;;
62994;SDS011;49086;52.300;4.850;2022-08-07T14:06:00;4.28;;;1.70;;
62994;SDS011;49086;52.300;4.850;2022-08-07T14:08:28;4.07;;;1.80;;
62994;SDS011;49086;52.300;4.850;2022-08-07T14:11:03;10.98;;;6.20;;
62994;SDS011;49086;52.300;4.850;2022-08-07T14:13:32;6.05;;;2.00;;
62994;SDS011;49086;52.300;4.850;2022-08-07T14:16:03;3.38;;;1.80;;
62994;SDS011;49086;52.300;4.850;2022-08-07T14:18:44;5.32;;;1.90;;
62994;SDS011;49086;52.300;4.850;2022-08-07T14:24:25;8.77;;;2.05;;
62994;SDS011;49086;52.300;4.850;2022-08-07T14:27:13;7.60;;;2.33;;
62994;SDS011;49086;52.300;4.850;2022-08-07T14:29:52;3.60;;;1.92;;
62994;SDS011;49086;52.300;4.850;2022-08-07T14:32:23;5.53;;;1.80;;
62994;SDS011;49086;52.300;4.850;2022-08-07T14:34:53;3.42;;;1.67;;
62994;SDS011;49086;52.300;4.850;2022-08-07T14:37:20;2.95;;;1.50;;
62994;SDS011;49086;52.300;4.850;2022-08-07T14:39:48;4.65;;;2.25;;
62994;SDS011;49086;52.300;4.850;2022-08-07T14:42:22;4.10;;;1.98;;
62994;SDS011;49086;52.300;4.850;2022-08-07T14:44:56;3.30;;;1.60;;
62994;SDS011;49086;52.300;4.850;2022-08-07T14:47:25;4.57;;;1.88;;
62994;SDS011;49086;52.300;4.850;2022-08-07T14:50:12;7.43;;;2.72;;
62994;SDS011;49086;52.300;4.850;2022-08-07T14:52:47;4.97;;;1.85;;
62994;SDS011;49086;52.300;4.850;2022-08-07T14:55:14;3.97;;;2.08;;
62994;SDS011;49086;52.300;4.850;2022-08-07T14:57:42;5.80;;;2.00;;
62994;SDS011;49086;52.300;4.850;2022-08-07T15:00:28;2.85;;;1.70;;
62994;SDS011;49086;52.300;4.850;2022-08-07T15:02:59;6.40;;;2.00;;
62994;SDS011;49086;52.300;4.850;2022-08-07T15:05:31;3.95;;;1.95;;
62994;SDS011;49086;52.300;4.850;2022-08-07T15:07:59;6.82;;;2.15;;
62994;SDS011;49086;52.300;4.850;2022-08-07T15:10:38;5.25;;;1.75;;
62994;SDS011;49086;52.300;4.850;2022-08-07T15:13:20;5.22;;;2.08;;
62994;SDS011;49086;52.300;4.850;2022-08-07T15:16:01;3.58;;;2.10;;
62994;SDS011;49086;52.300;4.850;2022-08-07T15:18:44;4.15;;;1.80;;
62994;SDS011;49086;52.300;4.850;2022-08-07T15:21:18;4.88;;;1.95;;
62994;SDS011;49086;52.300;4.850;2022-08-07T15:23:48;5.22;;;1.80;;
62994;SDS011;49086;52.300;4.850;2022-08-07T15:26:18;3.97;;;2.30;;
62994;SDS011;49086;52.300;4.850;2022-08-07T15:28:52;4.57;;;2.40;;
62994;SDS011;49086;52.300;4.850;2022-08-07T15:31:26;4.63;;;2.47;;
62994;SDS011;49086;52.300;4.850;2022-08-07T15:33:56;8.48;;;2.78;;
62994;SDS011;49086;52.300;4.850;2022-08-07T15:36:27;6.75;;;2.63;;
62994;SDS011;49086;52.300;4.850;2022-08-07T15:39:00;6.95;;;2.40;;
62994;SDS011;49086;52.300;4.850;2022-08-07T15:41:36;4.57;;;2.38;;
62994;SDS011;49086;52.300;4.850;2022-08-07T15:44:24;6.45;;;2.28;;
62994;SDS011;49086;52.300;4.850;2022-08-07T15:46:57;5.57;;;2.60;;
62994;SDS011;49086;52.300;4.850;2022-08-07T15:49:28;5.45;;;2.30;;
62994;SDS011;49086;52.300;4.850;2022-08-07T15:52:01;5.10;;;2.35;;
62994;SDS011;49086;52.300;4.850;2022-08-07T15:54:31;5.00;;;2.28;;
62994;SDS011;49086;52.300;4.850;2022-08-07T15:57:02;5.38;;;2.97;;
62994;SDS011;49086;52.300;4.850;2022-08-07T15:59:32;5.53;;;2.38;;
62994;SDS011;49086;52.300;4.850;2022-08-07T16:02:03;4.40;;;2.30;;
62994;SDS011;49086;52.300;4.850;2022-08-07T16:04:35;5.78;;;2.30;;
62994;SDS011;49086;52.300;4.850;2022-08-07T16:07:12;4.90;;;3.00;;
62994;SDS011;49086;52.300;4.850;2022-08-07T16:09:47;4.40;;;2.20;;
62994;SDS011;49086;52.300;4.850;2022-08-07T16:12:19;4.78;;;2.58;;
62994;SDS011;49086;52.300;4.850;2022-08-07T16:32:24;5.75;;;2.38;;
62994;SDS011;49086;52.300;4.850;2022-08-07T16:34:58;8.73;;;2.50;;
62994;SDS011;49086;52.300;4.850;2022-08-07T16:40:43;6.30;;;2.30;;
62994;SDS011;49086;52.300;4.850;2022-08-07T16:49:26;6.80;;;2.88;;
62994;SDS011;49086;52.300;4.850;2022-08-07T16:52:29;6.05;;;2.80;;
62994;SDS011;49086;52.300;4.850;2022-08-07T16:58:54;5.38;;;2.30;;
62994;SDS011;49086;52.300;4.850;2022-08-07T17:05:00;4.40;;;2.35;;
62994;SDS011;49086;52.300;4.850;2022-08-07T17:07:58;8.65;;;2.53;;
62994;SDS011;49086;52.300;4.850;2022-08-07T17:18:58;6.03;;;2.70;;
62994;SDS011;49086;52.300;4.850;2022-08-07T17:21:33;3.85;;;2.38;;
62994;SDS011;49086;52.300;4.850;2022-08-07T17:27:10;4.10;;;2.40;;
62994;SDS011;49086;52.300;4.850;2022-08-07T17:35:26;6.35;;;2.67;;
62994;SDS011;49086;52.300;4.850;2022-08-07T17:38:18;5.45;;;2.63;;
62994;SDS011;49086;52.300;4.850;2022-08-07T17:43:46;8.50;;;3.63;;
62994;SDS011;49086;52.300;4.850;2022-08-07T17:46:18;7.45;;;4.13;;
62994;SDS011;49086;52.300;4.850;2022-08-07T17:52:09;7.10;;;2.80;;
62994;SDS011;49086;52.300;4.850;2022-08-07T17:55:06;5.40;;;2.80;;
62994;SDS011;49086;52.300;4.850;2022-08-07T18:00:11;7.63;;;2.73;;
62994;SDS011;49086;52.300;4.850;2022-08-07T18:08:47;9.52;;;3.00;;
62994;SDS011;49086;52.300;4.850;2022-08-07T18:14:34;6.18;;;2.63;;
62994;SDS011;49086;52.300;4.850;2022-08-07T18:19:57;6.45;;;2.60;;
62994;SDS011;49086;52.300;4.850;2022-08-07T18:22:37;6.65;;;2.67;;
62994;SDS011;49086;52.300;4.850;2022-08-07T18:25:15;4.50;;;2.38;;
62994;SDS011;49086;52.300;4.850;2022-08-07T18:36:20;9.07;;;2.85;;
62994;SDS011;49086;52.300;4.850;2022-08-07T18:41:56;4.95;;;2.70;;
62994;SDS011;49086;52.300;4.850;2022-08-07T19:02:01;8.18;;;3.85;;
62994;SDS011;49086;52.300;4.850;2022-08-07T19:07:54;8.77;;;3.47;;
62994;SDS011;49086;52.300;4.850;2022-08-07T19:10:20;8.10;;;3.45;;
62994;SDS011;49086;52.300;4.850;2022-08-07T19:12:57;7.57;;;3.42;;
62994;SDS011;49086;52.300;4.850;2022-08-07T19:16:03;5.70;;;2.95;;
62994;SDS011;49086;52.300;4.850;2022-08-07T19:18:57;6.80;;;3.33;;
62994;SDS011;49086;52.300;4.850;2022-08-07T19:24:08;6.03;;;3.10;;
62994;SDS011;49086;52.300;4.850;2022-08-07T19:26:48;6.25;;;3.30;;
62994;SDS011;49086;52.300;4.850;2022-08-07T19:29:17;8.35;;;3.13;;
62994;SDS011;49086;52.300;4.850;2022-08-07T19:31:47;10.15;;;3.20;;
62994;SDS011;49086;52.300;4.850;2022-08-07T19:34:18;5.20;;;3.05;;
62994;SDS011;49086;52.300;4.850;2022-08-07T19:36:48;7.65;;;3.15;;
62994;SDS011;49086;52.300;4.850;2022-08-07T19:39:19;5.35;;;2.67;;
62994;SDS011;49086;52.300;4.850;2022-08-07T19:41:54;5.13;;;2.97;;
62994;SDS011;49086;52.300;4.850;2022-08-07T19:44:34;11.07;;;3.17;;
62994;SDS011;49086;52.300;4.850;2022-08-07T19:47:07;5.53;;;3.00;;
62994;SDS011;49086;52.300;4.850;2022-08-07T19:49:40;5.32;;;2.72;;
62994;SDS011;49086;52.300;4.850;2022-08-07T19:52:07;4.65;;;2.80;;
62994;SDS011;49086;52.300;4.850;2022-08-07T19:54:46;4.18;;;2.90;;
62994;SDS011;49086;52.300;4.850;2022-08-07T19:57:16;6.72;;;2.65;;
62994;SDS011;49086;52.300;4.850;2022-08-07T20:00:12;8.77;;;2.45;;
62994;SDS011;49086;52.300;4.850;2022-08-07T20:02:48;6.57;;;2.90;;